FNBG/BUG METAR and TAF weather

Enter ICAO airport designator
Station Type Date Time Source
FNBG METAR 2019/10/17 14:00 UTC NOAA

FNBG 171400Z 3005KT 9999 BKN015 28/21 Q1011


Station Type Date Time Source
FNBG Decoded METAR 2019/10/17 14:00 UTC NOAA

Monbaca Benguela , Angola (FNBG) 12-35S 013-25E 4M
Oct 17, 2019 - 10:00 AM EDT / 2019.10.17 1400 UTC
Visibility: greater than 7 mile(s):0
Sky conditions: mostly cloudy
Temperature: 82 F (28 C)
Dew Point: 69 F (21 C)
Relative Humidity: 65%
Pressure (altimeter): 29.85 in. Hg (1011 hPa)
ob: FNBG 171400Z 3005KT 9999 BKN015 28/21 Q1011
cycle: 14

Station Type Date Time Source
FNBG TAF 2019/10/18 12:00 UTC NOAA

TAF FNBG 181100Z 1812/1824 31010KT 9999 FEW030
TEMPO 1820/1824 VRB02KT

Example: see airport list